Latest Weather Observations for Thredbo Top Station

IDN60801

Issued at 2:32 am EDT Sunday 29 March 2015 (issued every 30 minutes, with the page automatically refreshed every 10 minutes)

About weather observations | Map of weather stations | Latest weather observations for NSW | Other Formats
Station Details ID: 071032 Name: THREDBO AWS Lat: -36.49 Lon: 148.29 Height: 1957.0 m
Data from the previous 72 hours. | See also: Recent months at Thredbo Top Station
Date/Time
EDT
Temp
°C
App
Temp
°C
Dew
Point
Rel
Hum
%
Delta-T
°C
Wind Press
QNH
hPa
Press
MSL
hPa
Rain
since 9 am
mm
Dir
 
Spd
km/h
Gust
km/h
Spd
kts
Gust
kts
29/02:30am 5.1 -5.9 -5.5 46 3.8 NW 44 52 24 28 1023.0 1020.8 0.0
29/02:00am 5.5 -4.8 -7.7 38 4.6 NW 39 46 21 25 1023.5 1021.3 0.0
29/01:30am 6.0 -3.2 -8.6 34 5.0 NW 33 39 18 21 1023.6 1021.4 0.0
29/01:00am 6.8 -3.0 -3.1 49 3.9 NW 39 44 21 24 1023.7 1021.5 0.0
29/12:30am 6.2 -2.2 -2.4 54 3.4 NNW 32 37 17 20 1023.7 1021.5 0.0
29/12:00am 3.2 -4.9 -0.4 77 1.5 NNW 32 35 17 19 1024.2 1022.0 0.0
 
Date/Time
EDT
Temp
°C
App
Temp
°C
Dew
Point
Rel
Hum
%
Delta-T
°C
Wind Press
QNH
hPa
Press
MSL
hPa
Rain
since 9 am
mm
Dir
 
Spd
km/h
Gust
km/h
Spd
kts
Gust
kts
28/11:30pm 3.7 -2.8 0.4 79 1.4 NNW 24 28 13 15 1024.4 1022.2 0.0
28/11:00pm 2.4 -4.1 0.0 84 1.0 NNW 24 28 13 15 1024.5 1022.3 0.0
28/10:30pm 1.3 -3.2 -0.6 87 0.8 N 13 15 7 8 1024.7 1022.6 0.0
28/10:00pm 1.3 -3.6 -0.6 87 0.7 NNW 15 17 8 9 1024.8 1022.7 0.0
28/09:30pm 1.1 -3.4 -0.4 90 0.6 N 13 13 7 7 1024.8 1022.7 0.0
28/09:00pm 1.1 -3.0 -0.5 89 0.6 N 11 15 6 8 1024.6 1022.4 0.0
28/08:30pm 1.6 -2.5 -0.2 88 0.7 N 11 13 6 7 1024.5 1022.3 0.0
28/08:00pm 4.0 0.9 0.3 77 1.5 NW 6 7 3 4 1024.0 1021.8 0.0
28/07:30pm 4.0 0.7 -0.2 74 1.7 NW 7 11 4 6 1023.8 1021.6 0.0
28/07:00pm 5.2 2.8 -0.4 67 2.3 NW 2 7 1 4 1023.6 1021.4 0.0
28/06:30pm 7.3 4.5 -0.2 59 3.2 WSW 4 7 2 4 1023.4 1021.1 0.0
28/05:30pm 8.5 5.4 1.2 60 3.2 SW 7 13 4 7 1023.1 1020.9 0.0
28/05:00pm 9.2 5.3 1.1 57 3.6 SSW 11 17 6 9 1023.0 1020.8 0.0
28/04:30pm 9.8 6.0 1.7 57 3.7 SSW 11 17 6 9 1023.0 1020.8 0.0
28/04:00pm 10.0 6.7 2.4 59 3.5 S 9 19 5 10 1022.9 1020.7 0.0
28/03:30pm 10.3 7.0 2.2 57 3.7 SSE 9 17 5 9 1022.8 1020.6 0.0
28/03:00pm 10.3 7.5 3.1 61 3.4 S 7 13 4 7 1022.7 1020.4 0.0
28/02:30pm 10.4 7.7 2.7 59 3.6 SE 6 15 3 8 1023.0 1020.8 0.0
28/02:00pm 9.7 6.3 2.1 59 3.5 S 9 15 5 8 1023.1 1020.9 0.0
28/01:30pm 9.6 6.8 1.8 58 3.5 SSE 6 11 3 6 1023.6 1021.4 0.0
28/01:00pm 9.5 6.2 0.1 52 4.1 SE 7 17 4 9 1023.6 1021.4 0.0
28/12:30pm 9.0 5.6 -1.7 47 4.5 SSW 6 15 3 8 - - 0.0
28/12:00pm 8.7 5.5 -0.6 52 4.0 ESE 6 11 3 6 - - 0.0
28/11:30am 8.1 4.8 -0.9 53 3.8 E 6 11 3 6 - - 0.0
28/11:00am 7.7 4.6 0.4 60 3.2 SE 6 9 3 5 - - 0.0
28/10:30am 7.8 4.1 -4.6 41 4.8 ENE 6 11 3 6 - - 0.0
28/10:00am 7.8 4.8 -2.0 50 4.0 ESE 4 7 2 4 - - 0.0
28/09:30am 6.9 3.1 -5.4 41 4.6 E 6 7 3 4 - - 0.0
28/09:00am 6.2 2.9 -8.1 35 5.0 NNW 2 6 1 3 - - 0.6
28/08:30am 4.6 1.9 -5.7 47 3.7 CALM 0 2 0 1 - - 0.6
28/08:00am 3.2 -1.0 -10.4 36 4.5 WSW 6 9 3 5 - - 0.6
28/07:30am 1.2 -2.8 -7.1 54 2.8 WSW 6 7 3 4 1023.8 1021.6 0.6
28/07:00am 1.2 -2.8 -6.1 58 2.6 SSW 7 11 4 6 1023.5 1021.3 0.6
28/06:30am 1.0 -4.2 -5.9 60 2.4 SW 13 17 7 9 1023.2 1021.0 0.6
28/06:00am 1.1 -3.8 -3.4 72 1.7 SW 13 17 7 9 1023.1 1020.9 0.6
28/05:30am 1.3 -4.2 -2.1 78 1.3 SW 17 24 9 13 1022.9 1020.7 0.6
28/05:00am -2.1 -5.1 -2.2 99 -0.1 NE 4 7 2 4 1022.8 1020.6 0.6
28/04:30am -1.2 -5.5 -1.3 99 0.0 S 11 28 6 15 1022.8 1020.6 0.6
28/04:00am -1.1 -6.5 -1.2 99 0.0 SW 17 22 9 12 1022.7 1020.4 0.6
28/03:30am -1.2 -7.0 -1.3 99 0.0 SW 19 28 10 15 1022.6 1020.3 0.6
28/03:00am -1.2 -7.6 -1.5 98 0.1 WSW 22 39 12 21 1022.8 1020.6 0.6
28/02:30am -0.7 -8.2 -1.1 97 0.1 SW 28 37 15 20 1022.8 1020.6 0.6
28/02:00am -0.3 -7.0 -1.0 95 0.3 SSW 24 32 13 17 1022.8 1020.6 0.6
28/01:30am -0.1 -5.8 -0.8 95 0.3 SW 19 28 10 15 1022.8 1020.6 0.6
28/01:00am 0.3 -5.9 -0.3 96 0.2 SW 22 32 12 17 1022.8 1020.6 0.6
28/12:30am 0.8 -5.0 0.2 96 0.2 SW 20 28 11 15 1022.8 1020.6 0.6
28/12:00am 1.0 -5.6 -0.3 91 0.5 SW 24 39 13 21 1022.8 1020.6 0.6
 
Date/Time
EDT
Temp
°C
App
Temp
°C
Dew
Point
Rel
Hum
%
Delta-T
°C
Wind Press
QNH
hPa
Press
MSL
hPa
Rain
since 9 am
mm
Dir
 
Spd
km/h
Gust
km/h
Spd
kts
Gust
kts
27/11:30pm 1.1 -5.5 -0.2 91 0.5 SW 24 39 13 21 1022.8 1020.6 0.6
27/11:00pm 1.4 -5.4 0.7 95 0.3 WSW 26 37 14 20 1022.6 1020.3 0.6
27/10:30pm 1.6 -4.9 0.6 93 0.4 WSW 24 35 13 19 1022.6 1020.3 0.6
27/10:00pm 1.7 -3.9 1.1 96 0.2 WSW 20 30 11 16 1022.3 1020.1 0.6
27/09:30pm 1.8 -3.8 1.2 96 0.2 WSW 20 28 11 15 1022.2 1020.0 0.6
27/09:00pm 2.0 -3.6 1.4 96 0.3 W 20 33 11 18 1022.0 1019.7 0.6
27/08:30pm 1.9 -4.8 1.6 98 0.1 WNW 26 37 14 20 1021.6 1019.4 0.6
27/08:00pm 1.9 -5.1 1.8 99 0.0 WNW 28 39 15 21 1021.2 1018.9 0.6
27/07:41pm 1.9 -5.1 1.8 99 0.0 WNW 28 52 15 28 1020.8 1018.6 0.6
27/07:30pm 1.9 -5.9 1.8 99 0.0 WNW 32 46 17 25 1020.8 1018.6 0.6
27/07:00pm 1.9 -7.2 1.8 99 0.0 WNW 39 57 21 31 1020.5 1018.2 0.6
27/06:34pm 2.0 -7.5 1.7 98 0.1 NW 41 59 22 32 1020.0 1017.7 0.6
27/06:30pm 2.0 -6.7 1.9 99 0.0 WNW 37 54 20 29 1020.0 1017.7 0.6
27/06:20pm 2.1 -6.3 1.8 98 0.1 WNW 35 54 19 29 1020.3 1018.0 0.6
27/06:00pm 2.3 -6.5 1.4 94 0.4 WNW 37 54 20 29 1019.9 1017.6 0.6
27/05:30pm 2.4 -7.2 1.1 91 0.5 W 41 61 22 33 1019.7 1017.4 0.6
27/05:12pm 2.5 -7.5 1.0 90 0.6 W 43 61 23 33 1019.8 1017.5 0.6
27/05:00pm 2.3 -7.3 1.3 93 0.4 W 41 54 22 29 1019.5 1017.1 0.6
27/04:34pm 2.4 -7.7 1.4 93 0.4 WNW 44 63 24 34 1019.2 1016.9 0.6
27/04:30pm 2.3 -7.7 1.3 93 0.4 W 43 59 23 32 1019.2 1016.9 0.6
27/04:03pm 2.4 -7.5 1.7 95 0.3 WNW 43 65 23 35 1019.4 1017.0 0.6
27/04:00pm 2.1 -7.8 1.7 97 0.2 WNW 43 59 23 32 1019.2 1016.9 0.6
27/03:30pm 1.9 -8.0 1.5 97 0.2 WNW 43 61 23 33 1019.2 1016.9 0.6
27/03:00pm 1.5 -9.4 1.2 98 0.1 WNW 48 74 26 40 1019.1 1016.8 0.6
27/02:30pm 1.4 -9.5 1.3 99 0.0 WNW 48 76 26 41 1019.4 1017.0 0.6
27/02:00pm 1.1 -9.9 1.0 99 0.0 WNW 48 70 26 38 1019.5 1017.1 0.6
27/01:30pm 1.1 -10.2 1.0 99 0.0 NW 50 69 27 37 1019.8 1017.5 0.6
27/01:09pm 0.7 -9.9 0.6 99 0.0 NW 46 65 25 35 1019.8 1017.5 0.6
27/01:00pm 0.3 -9.8 0.2 99 0.0 WNW 43 57 23 31 1020.5 1018.2 0.4
27/12:30pm 0.1 -8.9 0.0 99 0.0 NW 37 56 20 30 1021.0 1018.7 0.4
27/12:22pm 0.1 -9.3 0.0 99 0.0 NW 39 57 21 31 1021.0 1018.7 0.4
27/12:00pm 0.0 -10.2 -0.1 99 0.0 NW 43 57 23 31 1021.2 1018.9 0.4
27/11:30am -0.1 -10.9 -0.2 99 0.0 NW 46 67 25 36 1020.8 1018.6 0.4
27/11:00am -0.1 -10.3 -0.2 99 0.0 NW 43 69 23 37 1020.6 1018.3 0.4
27/10:36am -0.3 -10.7 -0.4 99 0.0 NW 44 63 24 34 1020.6 1018.3 0.4
27/10:30am -0.2 -10.6 -0.3 99 0.0 NW 44 59 24 32 1020.3 1018.0 0.4
27/10:00am -0.3 -11.8 -0.4 99 0.0 NW 50 70 27 38 1019.7 1017.4 0.4
27/09:32am -0.4 -10.2 -0.5 99 0.0 NW 41 59 22 32 1019.5 1017.1 0.4
27/09:30am -0.5 -10.0 -0.6 99 0.0 NW 39 56 21 30 1019.5 1017.1 0.2
27/09:00am -0.7 -9.4 -0.8 99 0.0 NW 35 46 19 25 1019.6 1017.3 0.2
27/08:39am -0.6 -10.9 -0.7 99 0.0 NW 43 61 23 33 1019.5 1017.1 0.0
27/08:30am -0.8 -12.0 -0.9 99 0.0 NW 48 61 26 33 1019.2 1016.9 0.0
27/08:17am -0.7 -6.6 -0.8 99 0.0 NW 20 65 11 35 1018.9 1016.6 0.0
27/08:00am -0.7 -5.6 -0.8 99 0.0 NNW 15 20 8 11 1018.8 1016.4 0.0
27/07:30am -0.8 -8.2 -0.9 99 0.0 NW 28 39 15 21 1018.6 1016.2 0.0
27/07:00am -0.9 -11.2 -1.0 99 0.0 NW 43 57 23 31 1018.4 1016.1 0.0
27/06:47am -0.9 -8.3 -1.0 99 0.0 NW 28 57 15 31 1018.4 1016.1 0.0
27/06:30am -1.0 -8.1 -1.1 99 0.0 NW 26 35 14 19 1018.3 1016.0 0.0
27/06:00am -0.9 -10.1 -1.0 99 0.0 NW 37 52 20 28 1018.3 1016.0 0.0
27/05:41am -0.9 -9.7 -1.0 99 0.0 NW 35 54 19 29 1018.6 1016.2 0.0
27/05:30am -0.9 -10.4 -1.0 99 0.0 NW 39 50 21 27 1018.6 1016.2 0.0
27/05:08am -0.8 -11.7 -0.9 99 0.0 NW 46 65 25 35 1018.1 1015.7 0.0
27/05:00am -1.0 -12.3 -1.1 99 0.0 NW 48 63 26 34 1018.0 1015.6 0.0
27/04:30am -1.2 -13.2 -1.3 99 0.0 NNW 52 70 28 38 1018.4 1016.1 0.0
27/04:02am -1.0 -11.3 -1.1 99 0.0 NW 43 63 23 34 1018.6 1016.2 0.0
27/04:00am -1.0 -11.3 -1.1 99 0.0 NW 43 57 23 31 1018.6 1016.2 0.0
27/03:30am -1.4 -13.5 -1.5 99 0.0 NNW 52 69 28 37 1018.9 1016.6 0.0
27/03:09am -1.2 -12.1 -1.3 99 0.0 NNW 46 65 25 35 1019.1 1016.8 0.0
27/03:00am -1.3 -13.0 -1.4 99 0.0 NNW 50 65 27 35 1019.4 1017.0 0.0
27/02:30am -1.3 -11.6 -1.4 99 0.0 NW 43 61 23 33 1019.5 1017.1 0.0
27/02:28am -1.4 -11.8 -1.5 99 0.0 NNW 43 61 23 33 1019.6 1017.3 0.0
27/02:00am -1.4 -13.9 -1.7 98 0.0 NNW 54 65 29 35 1019.6 1017.3 0.0
27/01:30am -1.4 -14.0 -2.4 93 0.3 NNW 54 67 29 36 1019.7 1017.4 0.0
27/01:00am -1.3 -14.3 -3.2 87 0.6 NNW 56 65 30 35 1020.2 1017.8 0.0
27/12:30am -1.1 -14.7 -3.3 85 0.7 NNW 59 76 32 41 1020.0 1017.7 0.0
27/12:23am -1.1 -14.4 -3.4 84 0.8 NNW 57 76 31 41 1019.9 1017.6 0.0
27/12:00am -1.0 -14.3 -3.5 83 0.8 NNW 57 69 31 37 1019.9 1017.6 0.0
 
Date/Time
EDT
Temp
°C
App
Temp
°C
Dew
Point
Rel
Hum
%
Delta-T
°C
Wind Press
QNH
hPa
Press
MSL
hPa
Rain
since 9 am
mm
Dir
 
Spd
km/h
Gust
km/h
Spd
kts
Gust
kts
26/11:40pm -0.9 -14.0 -3.6 82 0.9 NNW 56 74 30 40 1020.0 1017.7 0.0
26/11:30pm -0.9 -13.6 -3.6 82 0.9 NW 54 70 29 38 1020.0 1017.7 0.0
26/11:26pm -0.8 -12.7 -3.5 82 0.9 NW 50 70 27 38 1019.9 1017.6 0.0
26/11:00pm -0.7 -14.0 -3.5 81 1.0 NNW 57 70 31 38 1020.4 1018.1 0.0
26/10:30pm -0.7 -14.0 -3.9 79 1.1 NNW 57 72 31 39 1020.4 1018.1 0.0
26/10:00pm -0.7 -14.8 -3.7 80 1.0 NNW 61 78 33 42 1020.2 1017.8 0.0
26/09:30pm -0.6 -14.7 -3.9 78 1.2 NNW 61 82 33 44 1019.9 1017.6 0.0
26/09:00pm -0.5 -13.6 -4.0 77 1.2 NW 56 76 30 41 1020.0 1017.7 0.0
26/08:39pm -0.3 -14.4 -4.0 76 1.3 NNW 61 82 33 44 1019.7 1017.4 0.0
26/08:30pm -0.3 -14.0 -3.8 77 1.2 NW 59 74 32 40 1019.7 1017.4 0.0
26/08:00pm -0.1 -11.3 -4.0 75 1.4 NW 46 65 25 35 1019.5 1017.1 0.0
26/07:33pm 0.0 -11.2 -3.9 75 1.4 NW 46 65 25 35 1019.1 1016.8 0.0
26/07:30pm 0.0 -10.8 -3.9 75 1.4 NW 44 61 24 33 1019.1 1016.8 0.0
26/07:07pm 0.1 -10.2 -4.5 71 1.6 NW 41 59 22 32 1018.9 1016.6 0.0
26/07:00pm 0.3 -10.0 -4.3 71 1.7 NW 41 54 22 29 1018.9 1016.6 0.0
26/06:30pm 0.5 -11.2 -4.7 68 1.9 NNW 48 59 26 32 1018.6 1016.2 0.0
26/06:00pm 0.6 -10.3 -4.4 69 1.8 NW 44 65 24 35 1018.2 1015.8 0.0
26/05:35pm 1.0 -9.3 -4.4 67 2.0 NW 41 59 22 32 1018.1 1015.7 0.0
26/05:30pm 1.3 -9.4 -4.7 64 2.2 NW 43 59 23 32 1018.0 1015.6 0.0
26/05:00pm 1.4 -8.9 -4.2 66 2.1 NW 41 61 22 33 1017.9 1015.5 0.0
26/04:30pm 1.2 -10.8 -4.2 67 2.0 NNW 50 72 27 39 1017.8 1015.4 0.0
26/04:00pm 2.6 -8.0 -3.1 66 2.1 NW 43 63 23 34 1017.3 1014.9 0.0
26/03:55pm 1.4 -10.2 -3.8 68 2.0 NNW 48 67 26 36 1017.5 1015.1 0.0
26/03:53pm 1.7 -10.2 -3.4 69 2.0 NNW 50 67 27 36 1017.5 1015.1 0.0
26/03:30pm 1.7 -11.6 -4.0 66 2.2 NNW 57 76 31 41 1017.3 1014.9 0.0
26/03:00pm 2.4 -10.4 -4.6 60 2.7 NW 54 78 29 42 1016.8 1014.4 0.0
26/02:30pm 2.1 -12.4 -4.6 61 2.5 NNW 63 82 34 44 1017.2 1014.8 0.0
26/02:00pm 1.5 -12.6 -0.7 85 0.9 NNW 63 87 34 47 1017.1 1014.7 0.0
26/01:30pm 1.4 -12.4 0.8 96 0.2 NNW 63 87 34 47 1017.0 1014.6 0.0
26/01:00pm 1.8 -12.4 0.6 92 0.5 NNW 65 83 35 45 1017.0 1014.6 0.0
26/12:30pm 2.4 -12.8 0.6 88 0.7 NNW 70 89 38 48 1017.0 1014.6 0.0
26/12:00pm 2.1 -13.5 0.2 87 0.8 NNW 72 91 39 49 1017.1 1014.7 0.0
26/11:30am 2.3 -13.4 0.0 85 0.9 NNW 72 91 39 49 1017.1 1014.7 0.0
26/11:27am 2.7 -12.9 0.1 83 1.1 NNW 72 91 39 49 1017.1 1014.7 0.0
26/11:00am 1.6 -13.8 -0.6 85 0.9 NNW 70 87 38 47 1017.2 1014.8 0.0
26/10:30am 2.1 -13.3 -0.6 82 1.1 NNW 70 89 38 48 1016.8 1014.4 0.0
26/10:08am 2.3 -12.1 -0.3 83 1.0 NNW 65 83 35 45 1017.0 1014.6 0.0
26/10:00am 2.2 -12.9 -0.2 84 1.0 NNW 69 83 37 45 1016.7 1014.3 0.0
26/09:30am 0.9 -13.6 -1.2 86 0.8 NNW 65 78 35 42 1017.0 1014.6 0.0
26/09:05am 0.9 -11.6 -1.5 84 1.0 NW 54 72 29 39 1016.8 1014.4 0.0
26/09:00am 1.0 -11.0 -1.2 85 0.9 NW 52 67 28 36 1017.0 1014.6 0.0
26/08:30am 1.1 -11.0 -1.8 81 1.2 NW 52 72 28 39 1016.8 1014.4 0.0
26/08:00am 0.4 -11.4 -2.5 81 1.1 NW 50 69 27 37 1016.4 1014.0 0.0
26/07:59am 0.4 -11.4 -2.5 81 1.1 NW 50 69 27 37 1016.4 1014.0 0.0
26/07:30am -0.1 -13.2 -2.2 86 0.8 NW 57 72 31 39 1016.3 1013.8 0.0
26/07:00am 0.2 -12.9 -2.2 84 0.9 NW 57 76 31 41 1016.0 1013.6 0.0
26/06:30am 0.8 -14.1 -1.6 84 1.0 NW 67 83 36 45 1015.7 1013.3 0.0
26/06:23am 0.6 -14.0 -1.9 83 1.0 NW 65 83 35 45 1015.7 1013.3 0.0
26/06:00am 0.7 -14.3 -1.8 83 1.0 NW 67 80 36 43 1015.5 1013.0 0.0
26/05:42am 0.6 -14.0 -2.1 82 1.1 NW 65 83 35 45 1015.5 1013.0 0.0
26/05:30am 0.4 -13.1 -2.0 84 0.9 NW 59 74 32 40 1015.5 1013.0 0.0
26/05:12am 0.6 -13.1 -0.8 90 0.5 NW 61 80 33 43 1015.5 1013.0 0.0
26/05:00am 1.0 -14.2 -0.6 89 0.6 NW 69 82 37 44 1015.2 1012.8 0.0
26/04:30am 1.4 -14.2 0.1 91 0.5 NW 72 89 39 48 1015.4 1012.9 0.0
26/04:28am 1.6 -14.4 0.1 90 0.6 NW 74 93 40 50 1015.2 1012.8 0.0
26/04:00am 1.9 -14.4 0.7 92 0.5 NW 76 93 41 50 1015.2 1012.8 0.0
26/03:30am 2.0 -14.7 1.0 93 0.4 NNW 78 96 42 52 1015.4 1012.9 0.0
26/03:00am 2.2 -14.5 0.9 91 0.5 NW 78 96 42 52 1015.2 1012.8 0.0
26/02:33am 2.3 -14.0 1.0 91 0.5 NW 76 95 41 51 1015.7 1013.3 0.0

Other Formats:

Comma delimited format used in spreadsheet applications
http://www.bom.gov.au/fwo/IDN60801/IDN60801.95909.axf

JavaScript Object Notation format (JSON) in row-major order
http://www.bom.gov.au/fwo/IDN60801/IDN60801.95909.json